sensor_id;sensor_type;location;lat;lon;timestamp;pressure;altitude;pressure_sealevel;temperature;humidity
55932;BME280;41837;55.700;37.984;2023-08-06T00:01:49;100476.63;;;17.17;100.00
55932;BME280;41837;55.700;37.984;2023-08-06T00:04:16;100475.94;;;17.13;100.00
55932;BME280;41837;55.700;37.984;2023-08-06T00:06:43;100475.91;;;16.99;100.00
55932;BME280;41837;55.700;37.984;2023-08-06T00:09:08;100480.81;;;17.05;100.00
55932;BME280;41837;55.700;37.984;2023-08-06T00:11:35;100479.56;;;17.12;100.00
55932;BME280;41837;55.700;37.984;2023-08-06T00:14:01;100469.81;;;17.13;100.00
55932;BME280;41837;55.700;37.984;2023-08-06T00:16:28;100472.56;;;17.26;100.00
55932;BME280;41837;55.700;37.984;2023-08-06T00:18:54;100469.94;;;17.26;100.00
55932;BME280;41837;55.700;37.984;2023-08-06T00:21:20;100468.81;;;17.30;100.00
55932;BME280;41837;55.700;37.984;2023-08-06T00:23:46;100466.00;;;17.33;100.00
55932;BME280;41837;55.700;37.984;2023-08-06T00:26:13;100462.69;;;17.29;100.00
55932;BME280;41837;55.700;37.984;2023-08-06T00:28:39;100476.09;;;17.26;100.00
55932;BME280;41837;55.700;37.984;2023-08-06T00:31:05;100469.75;;;17.29;100.00
55932;BME280;41837;55.700;37.984;2023-08-06T00:33:33;100466.53;;;17.24;100.00
55932;BME280;41837;55.700;37.984;2023-08-06T00:35:59;100476.72;;;17.15;100.00
55932;BME280;41837;55.700;37.984;2023-08-06T00:38:26;100478.69;;;17.12;100.00
55932;BME280;41837;55.700;37.984;2023-08-06T00:40:52;100472.56;;;17.11;100.00
55932;BME280;41837;55.700;37.984;2023-08-06T00:43:19;100474.94;;;17.16;100.00
55932;BME280;41837;55.700;37.984;2023-08-06T00:45:46;100476.91;;;17.12;100.00
55932;BME280;41837;55.700;37.984;2023-08-06T00:48:12;100472.22;;;17.02;100.00
55932;BME280;41837;55.700;37.984;2023-08-06T00:50:39;100476.59;;;17.03;100.00
55932;BME280;41837;55.700;37.984;2023-08-06T00:53:06;100475.63;;;17.04;100.00
55932;BME280;41837;55.700;37.984;2023-08-06T00:55:32;100471.97;;;17.06;100.00
55932;BME280;41837;55.700;37.984;2023-08-06T00:57:59;100481.50;;;17.09;100.00
55932;BME280;41837;55.700;37.984;2023-08-06T01:00:27;100476.78;;;17.14;100.00
55932;BME280;41837;55.700;37.984;2023-08-06T01:02:53;100479.50;;;16.98;100.00
55932;BME280;41837;55.700;37.984;2023-08-06T01:05:21;100478.72;;;16.80;100.00
55932;BME280;41837;55.700;37.984;2023-08-06T01:15:49;100492.03;;;16.94;100.00
55932;BME280;41837;55.700;37.984;2023-08-06T01:18:16;100488.13;;;16.86;100.00
55932;BME280;41837;55.700;37.984;2023-08-06T01:20:42;100480.03;;;16.89;100.00
55932;BME280;41837;55.700;37.984;2023-08-06T01:23:09;100487.41;;;16.98;100.00
55932;BME280;41837;55.700;37.984;2023-08-06T01:31:05;100481.72;;;16.90;100.00
55932;BME280;41837;55.700;37.984;2023-08-06T01:33:34;100482.75;;;16.87;100.00
55932;BME280;41837;55.700;37.984;2023-08-06T01:36:03;100492.22;;;16.75;100.00
55932;BME280;41837;55.700;37.984;2023-08-06T01:38:32;100483.53;;;16.73;100.00
55932;BME280;41837;55.700;37.984;2023-08-06T01:40:58;100489.81;;;16.71;100.00
55932;BME280;41837;55.700;37.984;2023-08-06T01:43:24;100491.88;;;16.66;100.00
55932;BME280;41837;55.700;37.984;2023-08-06T01:45:50;100494.69;;;16.63;100.00
55932;BME280;41837;55.700;37.984;2023-08-06T01:48:16;100496.91;;;16.70;100.00
55932;BME280;41837;55.700;37.984;2023-08-06T01:50:43;100493.88;;;16.76;100.00
55932;BME280;41837;55.700;37.984;2023-08-06T01:53:09;100489.28;;;16.80;100.00
55932;BME280;41837;55.700;37.984;2023-08-06T01:55:36;100495.88;;;16.89;100.00
55932;BME280;41837;55.700;37.984;2023-08-06T01:58:02;100496.59;;;17.07;100.00
55932;BME280;41837;55.700;37.984;2023-08-06T02:00:28;100500.97;;;16.92;100.00
55932;BME280;41837;55.700;37.984;2023-08-06T02:02:55;100498.78;;;16.84;100.00
55932;BME280;41837;55.700;37.984;2023-08-06T02:05:21;100497.03;;;16.83;100.00
55932;BME280;41837;55.700;37.984;2023-08-06T02:07:47;100510.44;;;16.96;100.00
55932;BME280;41837;55.700;37.984;2023-08-06T02:10:14;100508.88;;;17.08;100.00
55932;BME280;41837;55.700;37.984;2023-08-06T02:12:40;100514.41;;;17.33;100.00
55932;BME280;41837;55.700;37.984;2023-08-06T02:15:07;100511.22;;;17.87;100.00
55932;BME280;41837;55.700;37.984;2023-08-06T02:17:33;100487.13;;;18.48;100.00
55932;BME280;41837;55.700;37.984;2023-08-06T02:20:00;100477.88;;;18.82;100.00
55932;BME280;41837;55.700;37.984;2023-08-06T02:22:31;100464.38;;;19.26;100.00
55932;BME280;41837;55.700;37.984;2023-08-06T02:24:58;100468.56;;;19.30;100.00
55932;BME280;41837;55.700;37.984;2023-08-06T02:27:25;100466.22;;;19.89;100.00
55932;BME280;41837;55.700;37.984;2023-08-06T02:29:51;100461.41;;;20.44;100.00
55932;BME280;41837;55.700;37.984;2023-08-06T02:32:17;100448.38;;;20.65;100.00
55932;BME280;41837;55.700;37.984;2023-08-06T02:34:44;100443.19;;;20.99;100.00
55932;BME280;41837;55.700;37.984;2023-08-06T02:37:10;100438.56;;;21.37;100.00
55932;BME280;41837;55.700;37.984;2023-08-06T02:39:38;100434.63;;;21.76;100.00
55932;BME280;41837;55.700;37.984;2023-08-06T02:42:07;100424.81;;;22.00;100.00
55932;BME280;41837;55.700;37.984;2023-08-06T02:44:34;100426.00;;;21.50;100.00
55932;BME280;41837;55.700;37.984;2023-08-06T02:47:00;100439.34;;;21.73;100.00
55932;BME280;41837;55.700;37.984;2023-08-06T02:49:28;100426.72;;;21.97;100.00
55932;BME280;41837;55.700;37.984;2023-08-06T02:51:55;100426.13;;;21.94;100.00
55932;BME280;41837;55.700;37.984;2023-08-06T02:54:22;100424.28;;;22.17;100.00
55932;BME280;41837;55.700;37.984;2023-08-06T02:56:48;100414.63;;;22.81;100.00
55932;BME280;41837;55.700;37.984;2023-08-06T02:59:24;100417.03;;;22.63;100.00
55932;BME280;41837;55.700;37.984;2023-08-06T03:02:05;100413.63;;;22.93;100.00
55932;BME280;41837;55.700;37.984;2023-08-06T03:04:43;100408.50;;;23.22;100.00
55932;BME280;41837;55.700;37.984;2023-08-06T03:07:11;100398.97;;;23.81;100.00
55932;BME280;41837;55.700;37.984;2023-08-06T03:09:48;100393.81;;;24.09;100.00
55932;BME280;41837;55.700;37.984;2023-08-06T03:12:14;100385.56;;;24.51;100.00
55932;BME280;41837;55.700;37.984;2023-08-06T03:14:41;100386.06;;;25.13;100.00
55932;BME280;41837;55.700;37.984;2023-08-06T03:17:07;100389.25;;;24.60;100.00
55932;BME280;41837;55.700;37.984;2023-08-06T03:19:35;100377.69;;;24.79;100.00
55932;BME280;41837;55.700;37.984;2023-08-06T03:22:03;100371.16;;;25.01;100.00
55932;BME280;41837;55.700;37.984;2023-08-06T03:24:32;100375.06;;;25.64;100.00
55932;BME280;41837;55.700;37.984;2023-08-06T03:26:59;100368.56;;;25.94;100.00
55932;BME280;41837;55.700;37.984;2023-08-06T03:29:26;100373.59;;;26.43;96.27
55932;BME280;41837;55.700;37.984;2023-08-06T03:31:53;100374.88;;;26.39;96.50
55932;BME280;41837;55.700;37.984;2023-08-06T03:34:19;100368.84;;;26.37;97.85
55932;BME280;41837;55.700;37.984;2023-08-06T03:36:48;100363.31;;;26.20;96.64
55932;BME280;41837;55.700;37.984;2023-08-06T03:39:14;100366.47;;;26.52;94.73
55932;BME280;41837;55.700;37.984;2023-08-06T03:41:41;100369.47;;;26.67;93.95
55932;BME280;41837;55.700;37.984;2023-08-06T03:44:08;100369.00;;;26.53;94.13
55932;BME280;41837;55.700;37.984;2023-08-06T03:46:34;100376.03;;;26.72;93.60
55932;BME280;41837;55.700;37.984;2023-08-06T03:49:04;100363.78;;;27.22;90.70
55932;BME280;41837;55.700;37.984;2023-08-06T03:51:30;100374.28;;;27.33;90.89
55932;BME280;41837;55.700;37.984;2023-08-06T03:53:56;100366.31;;;27.93;87.78
55932;BME280;41837;55.700;37.984;2023-08-06T03:56:23;100368.59;;;26.84;93.92
55932;BME280;41837;55.700;37.984;2023-08-06T03:58:49;100367.59;;;27.11;90.43
55932;BME280;41837;55.700;37.984;2023-08-06T04:01:16;100360.31;;;27.64;90.19
55932;BME280;41837;55.700;37.984;2023-08-06T04:03:45;100368.28;;;26.87;92.03
55932;BME280;41837;55.700;37.984;2023-08-06T04:06:12;100357.09;;;28.03;86.93
55932;BME280;41837;55.700;37.984;2023-08-06T04:08:38;100363.22;;;27.79;87.47
55932;BME280;41837;55.700;37.984;2023-08-06T04:11:05;100352.94;;;27.58;87.76
55932;BME280;41837;55.700;37.984;2023-08-06T04:13:31;100359.50;;;27.29;86.59
55932;BME280;41837;55.700;37.984;2023-08-06T04:16:02;100352.50;;;26.84;90.16
55932;BME280;41837;55.700;37.984;2023-08-06T04:18:29;100345.69;;;27.59;87.83
55932;BME280;41837;55.700;37.984;2023-08-06T04:20:55;100343.19;;;28.33;80.94
55932;BME280;41837;55.700;37.984;2023-08-06T04:23:23;100342.38;;;28.40;79.01
55932;BME280;41837;55.700;37.984;2023-08-06T04:25:57;100351.69;;;27.44;86.85
55932;BME280;41837;55.700;37.984;2023-08-06T04:28:25;100348.44;;;26.80;87.28
55932;BME280;41837;55.700;37.984;2023-08-06T04:30:53;100352.44;;;28.38;84.06
55932;BME280;41837;55.700;37.984;2023-08-06T04:33:20;100352.50;;;27.87;81.89
55932;BME280;41837;55.700;37.984;2023-08-06T04:35:47;100350.19;;;27.93;83.19
55932;BME280;41837;55.700;37.984;2023-08-06T04:38:19;100348.88;;;29.12;76.58
55932;BME280;41837;55.700;37.984;2023-08-06T04:40:46;100345.53;;;29.01;78.40
55932;BME280;41837;55.700;37.984;2023-08-06T04:43:12;100346.00;;;29.22;77.02
55932;BME280;41837;55.700;37.984;2023-08-06T04:45:38;100349.63;;;29.45;75.44
55932;BME280;41837;55.700;37.984;2023-08-06T04:48:11;100343.03;;;29.48;75.43
55932;BME280;41837;55.700;37.984;2023-08-06T04:50:37;100347.91;;;28.88;77.33
55932;BME280;41837;55.700;37.984;2023-08-06T04:53:03;100341.53;;;29.85;73.44
55932;BME280;41837;55.700;37.984;2023-08-06T04:55:30;100346.78;;;29.47;74.06
55932;BME280;41837;55.700;37.984;2023-08-06T04:57:56;100341.94;;;30.51;71.62
55932;BME280;41837;55.700;37.984;2023-08-06T05:00:22;100338.88;;;29.37;74.86
55932;BME280;41837;55.700;37.984;2023-08-06T05:02:48;100335.06;;;30.48;71.67
55932;BME280;41837;55.700;37.984;2023-08-06T05:05:14;100338.03;;;30.07;71.74
55932;BME280;41837;55.700;37.984;2023-08-06T05:07:41;100335.69;;;29.73;73.88
55932;BME280;41837;55.700;37.984;2023-08-06T05:10:07;100333.06;;;30.80;70.00
55932;BME280;41837;55.700;37.984;2023-08-06T05:12:34;100336.84;;;30.94;68.32
55932;BME280;41837;55.700;37.984;2023-08-06T05:15:00;100331.41;;;30.18;70.06
55932;BME280;41837;55.700;37.984;2023-08-06T05:17:26;100329.78;;;30.70;68.12
55932;BME280;41837;55.700;37.984;2023-08-06T05:19:52;100330.88;;;30.99;67.34
55932;BME280;41837;55.700;37.984;2023-08-06T05:22:18;100328.19;;;31.29;66.30
55932;BME280;41837;55.700;37.984;2023-08-06T05:24:45;100327.63;;;31.33;66.51
55932;BME280;41837;55.700;37.984;2023-08-06T05:27:12;100322.63;;;32.25;64.25
55932;BME280;41837;55.700;37.984;2023-08-06T05:29:38;100314.72;;;30.91;66.36
55932;BME280;41837;55.700;37.984;2023-08-06T05:32:05;100309.19;;;31.07;66.34
55932;BME280;41837;55.700;37.984;2023-08-06T05:34:31;100315.66;;;30.83;66.65
55932;BME280;41837;55.700;37.984;2023-08-06T05:36:58;100313.38;;;31.10;66.36
55932;BME280;41837;55.700;37.984;2023-08-06T05:39:24;100318.88;;;30.63;67.80
55932;BME280;41837;55.700;37.984;2023-08-06T05:41:50;100309.38;;;31.50;65.00
55932;BME280;41837;55.700;37.984;2023-08-06T05:44:18;100316.38;;;31.15;64.64
55932;BME280;41837;55.700;37.984;2023-08-06T05:46:44;100313.34;;;31.24;65.26
55932;BME280;41837;55.700;37.984;2023-08-06T05:49:10;100315.31;;;31.60;64.80
55932;BME280;41837;55.700;37.984;2023-08-06T05:51:39;100319.28;;;30.90;64.04
55932;BME280;41837;55.700;37.984;2023-08-06T05:54:05;100310.66;;;31.24;64.33
55932;BME280;41837;55.700;37.984;2023-08-06T05:56:32;100312.53;;;32.33;60.56
55932;BME280;41837;55.700;37.984;2023-08-06T05:58:58;100311.00;;;32.74;60.96
55932;BME280;41837;55.700;37.984;2023-08-06T06:01:24;100314.00;;;32.36;59.61
55932;BME280;41837;55.700;37.984;2023-08-06T06:03:51;100320.28;;;32.15;61.34
55932;BME280;41837;55.700;37.984;2023-08-06T06:06:17;100318.03;;;31.82;63.33
55932;BME280;41837;55.700;37.984;2023-08-06T06:08:44;100318.41;;;32.15;60.18
55932;BME280;41837;55.700;37.984;2023-08-06T06:11:11;100309.72;;;32.48;59.95
55932;BME280;41837;55.700;37.984;2023-08-06T06:13:37;100300.38;;;33.49;57.31
55932;BME280;41837;55.700;37.984;2023-08-06T06:16:04;100305.91;;;32.14;60.63
55932;BME280;41837;55.700;37.984;2023-08-06T06:18:31;100299.38;;;32.52;59.44
55932;BME280;41837;55.700;37.984;2023-08-06T06:20:57;100311.28;;;31.41;61.58
55932;BME280;41837;55.700;37.984;2023-08-06T06:23:24;100298.44;;;31.43;63.67
55932;BME280;41837;55.700;37.984;2023-08-06T06:25:50;100304.31;;;32.20;64.38
55932;BME280;41837;55.700;37.984;2023-08-06T06:28:20;100300.81;;;32.76;59.19
55932;BME280;41837;55.700;37.984;2023-08-06T06:30:47;100297.81;;;32.99;57.46
55932;BME280;41837;55.700;37.984;2023-08-06T06:33:13;100300.69;;;33.26;55.56
55932;BME280;41837;55.700;37.984;2023-08-06T06:35:40;100294.81;;;32.31;58.66
55932;BME280;41837;55.700;37.984;2023-08-06T06:38:07;100294.72;;;33.37;54.00
55932;BME280;41837;55.700;37.984;2023-08-06T06:40:33;100293.50;;;32.20;58.27
55932;BME280;41837;55.700;37.984;2023-08-06T06:42:59;100292.31;;;32.08;58.42
55932;BME280;41837;55.700;37.984;2023-08-06T06:45:26;100286.44;;;32.47;57.14
55932;BME280;41837;55.700;37.984;2023-08-06T06:47:52;100289.91;;;31.76;59.11
55932;BME280;41837;55.700;37.984;2023-08-06T06:50:18;100285.88;;;32.87;56.59
55932;BME280;41837;55.700;37.984;2023-08-06T06:52:44;100294.03;;;33.22;55.09
55932;BME280;41837;55.700;37.984;2023-08-06T06:55:10;100292.47;;;32.71;54.89
55932;BME280;41837;55.700;37.984;2023-08-06T06:57:37;100289.50;;;33.36;54.24
55932;BME280;41837;55.700;37.984;2023-08-06T07:00:04;100289.31;;;34.26;52.73
55932;BME280;41837;55.700;37.984;2023-08-06T07:02:31;100289.03;;;32.34;56.62
55932;BME280;41837;55.700;37.984;2023-08-06T07:04:57;100290.56;;;33.48;55.39
55932;BME280;41837;55.700;37.984;2023-08-06T07:07:23;100283.22;;;32.37;57.11
55932;BME280;41837;55.700;37.984;2023-08-06T07:09:49;100275.00;;;32.24;55.51
55932;BME280;41837;55.700;37.984;2023-08-06T07:12:16;100279.38;;;33.16;52.63
55932;BME280;41837;55.700;37.984;2023-08-06T07:14:42;100283.47;;;31.99;55.95
55932;BME280;41837;55.700;37.984;2023-08-06T07:17:09;100277.88;;;33.07;53.73
55932;BME280;41837;55.700;37.984;2023-08-06T07:19:35;100282.56;;;33.26;52.88
55932;BME280;41837;55.700;37.984;2023-08-06T07:22:01;100278.59;;;32.09;54.19
55932;BME280;41837;55.700;37.984;2023-08-06T07:24:27;100280.91;;;33.87;50.42
55932;BME280;41837;55.700;37.984;2023-08-06T07:26:54;100284.81;;;33.16;52.79
55932;BME280;41837;55.700;37.984;2023-08-06T07:29:20;100272.41;;;32.15;55.72
55932;BME280;41837;55.700;37.984;2023-08-06T07:31:48;100274.72;;;32.68;53.62
55932;BME280;41837;55.700;37.984;2023-08-06T07:34:16;100264.16;;;32.45;52.76
55932;BME280;41837;55.700;37.984;2023-08-06T07:36:44;100267.16;;;32.92;52.50
55932;BME280;41837;55.700;37.984;2023-08-06T07:39:12;100262.63;;;32.14;53.74
55932;BME280;41837;55.700;37.984;2023-08-06T07:41:38;100271.75;;;32.92;52.55
55932;BME280;41837;55.700;37.984;2023-08-06T07:44:05;100266.38;;;32.13;52.46
55932;BME280;41837;55.700;37.984;2023-08-06T07:46:32;100271.56;;;31.93;53.51
55932;BME280;41837;55.700;37.984;2023-08-06T07:48:58;100262.56;;;33.27;51.54
55932;BME280;41837;55.700;37.984;2023-08-06T07:51:25;100257.56;;;33.31;49.88
55932;BME280;41837;55.700;37.984;2023-08-06T07:53:51;100262.75;;;32.28;52.44
55932;BME280;41837;55.700;37.984;2023-08-06T07:56:17;100260.69;;;32.58;51.16
55932;BME280;41837;55.700;37.984;2023-08-06T07:58:44;100256.81;;;31.53;50.55
55932;BME280;41837;55.700;37.984;2023-08-06T08:01:11;100258.13;;;32.22;50.03
55932;BME280;41837;55.700;37.984;2023-08-06T08:03:37;100255.63;;;33.73;48.91
55932;BME280;41837;55.700;37.984;2023-08-06T08:06:03;100251.97;;;32.98;48.94
55932;BME280;41837;55.700;37.984;2023-08-06T08:08:30;100249.56;;;32.75;50.32
55932;BME280;41837;55.700;37.984;2023-08-06T08:10:57;100255.28;;;32.86;50.04
55932;BME280;41837;55.700;37.984;2023-08-06T08:13:25;100263.59;;;31.85;50.99
55932;BME280;41837;55.700;37.984;2023-08-06T08:15:59;100260.09;;;32.34;51.23
55932;BME280;41837;55.700;37.984;2023-08-06T08:18:28;100244.81;;;32.20;51.86
55932;BME280;41837;55.700;37.984;2023-08-06T08:20:54;100252.22;;;32.11;51.57
55932;BME280;41837;55.700;37.984;2023-08-06T08:23:20;100252.81;;;32.35;51.93
55932;BME280;41837;55.700;37.984;2023-08-06T08:25:47;100245.09;;;32.32;51.77
55932;BME280;41837;55.700;37.984;2023-08-06T08:28:14;100244.38;;;31.22;54.99
55932;BME280;41837;55.700;37.984;2023-08-06T08:30:41;100247.53;;;30.66;56.94
55932;BME280;41837;55.700;37.984;2023-08-06T08:33:07;100236.19;;;31.15;56.65
55932;BME280;41837;55.700;37.984;2023-08-06T08:35:34;100238.59;;;31.25;57.46
55932;BME280;41837;55.700;37.984;2023-08-06T08:38:00;100239.63;;;31.09;56.37
55932;BME280;41837;55.700;37.984;2023-08-06T08:40:32;100240.34;;;31.18;57.01
55932;BME280;41837;55.700;37.984;2023-08-06T08:42:59;100239.13;;;30.91;57.39
55932;BME280;41837;55.700;37.984;2023-08-06T08:45:28;100234.59;;;30.61;57.90
55932;BME280;41837;55.700;37.984;2023-08-06T08:47:56;100236.91;;;30.64;58.83
55932;BME280;41837;55.700;37.984;2023-08-06T08:50:23;100233.56;;;30.47;58.20
55932;BME280;41837;55.700;37.984;2023-08-06T08:52:50;100232.69;;;29.94;60.77
55932;BME280;41837;55.700;37.984;2023-08-06T08:55:17;100231.88;;;30.46;61.91
55932;BME280;41837;55.700;37.984;2023-08-06T08:57:45;100238.06;;;30.32;62.19
55932;BME280;41837;55.700;37.984;2023-08-06T09:00:11;100224.53;;;30.85;59.88
55932;BME280;41837;55.700;37.984;2023-08-06T09:02:39;100233.00;;;30.14;61.18
55932;BME280;41837;55.700;37.984;2023-08-06T09:05:06;100222.66;;;30.41;60.33
55932;BME280;41837;55.700;37.984;2023-08-06T09:07:42;100223.91;;;30.83;59.93
55932;BME280;41837;55.700;37.984;2023-08-06T09:10:13;100217.28;;;30.41;60.83
55932;BME280;41837;55.700;37.984;2023-08-06T09:12:43;100223.34;;;30.73;61.35
55932;BME280;41837;55.700;37.984;2023-08-06T09:15:11;100218.75;;;30.58;60.29
55932;BME280;41837;55.700;37.984;2023-08-06T09:17:37;100224.06;;;30.52;61.86
55932;BME280;41837;55.700;37.984;2023-08-06T09:20:14;100220.31;;;31.27;60.01
55932;BME280;41837;55.700;37.984;2023-08-06T09:22:41;100221.44;;;31.18;60.91
55932;BME280;41837;55.700;37.984;2023-08-06T09:25:08;100224.56;;;29.71;62.09
55932;BME280;41837;55.700;37.984;2023-08-06T09:27:37;100229.78;;;29.95;63.84
55932;BME280;41837;55.700;37.984;2023-08-06T09:30:05;100219.56;;;30.06;65.29
55932;BME280;41837;55.700;37.984;2023-08-06T09:32:46;100214.19;;;30.06;66.07
55932;BME280;41837;55.700;37.984;2023-08-06T09:35:19;100210.22;;;30.17;65.02
55932;BME280;41837;55.700;37.984;2023-08-06T09:37:46;100213.84;;;30.47;63.82
55932;BME280;41837;55.700;37.984;2023-08-06T09:42:53;100208.06;;;30.80;60.31
55932;BME280;41837;55.700;37.984;2023-08-06T09:45:19;100206.75;;;31.20;58.77
55932;BME280;41837;55.700;37.984;2023-08-06T09:47:50;100209.84;;;30.58;60.00
55932;BME280;41837;55.700;37.984;2023-08-06T09:50:22;100207.28;;;30.26;60.89
55932;BME280;41837;55.700;37.984;2023-08-06T09:52:50;100206.28;;;30.42;62.55
55932;BME280;41837;55.700;37.984;2023-08-06T09:55:18;100206.47;;;30.41;63.87
55932;BME280;41837;55.700;37.984;2023-08-06T09:57:46;100197.84;;;30.60;64.00
55932;BME280;41837;55.700;37.984;2023-08-06T10:00:13;100192.16;;;31.00;61.91
55932;BME280;41837;55.700;37.984;2023-08-06T10:02:40;100188.94;;;30.22;63.64
55932;BME280;41837;55.700;37.984;2023-08-06T10:05:08;100185.66;;;30.64;62.16
55932;BME280;41837;55.700;37.984;2023-08-06T10:07:34;100183.09;;;30.18;64.45
55932;BME280;41837;55.700;37.984;2023-08-06T10:10:01;100179.09;;;30.88;64.36
55932;BME280;41837;55.700;37.984;2023-08-06T10:12:34;100177.66;;;30.56;64.36
55932;BME280;41837;55.700;37.984;2023-08-06T10:15:12;100166.53;;;30.21;64.74
55932;BME280;41837;55.700;37.984;2023-08-06T10:17:41;100176.25;;;30.45;63.29
55932;BME280;41837;55.700;37.984;2023-08-06T10:20:10;100169.19;;;30.44;63.60
55932;BME280;41837;55.700;37.984;2023-08-06T10:22:43;100160.22;;;30.29;65.80
55932;BME280;41837;55.700;37.984;2023-08-06T10:25:10;100172.47;;;30.17;65.94
55932;BME280;41837;55.700;37.984;2023-08-06T10:27:54;100164.97;;;30.57;65.63
55932;BME280;41837;55.700;37.984;2023-08-06T10:30:31;100164.03;;;30.20;66.09
55932;BME280;41837;55.700;37.984;2023-08-06T10:33:00;100157.38;;;30.60;65.85
55932;BME280;41837;55.700;37.984;2023-08-06T10:35:31;100147.56;;;30.89;64.87
55932;BME280;41837;55.700;37.984;2023-08-06T10:38:05;100159.41;;;30.58;65.01
55932;BME280;41837;55.700;37.984;2023-08-06T10:40:32;100155.25;;;30.92;66.21
55932;BME280;41837;55.700;37.984;2023-08-06T10:43:00;100165.25;;;30.77;65.64
55932;BME280;41837;55.700;37.984;2023-08-06T10:45:27;100156.31;;;30.17;65.81
55932;BME280;41837;55.700;37.984;2023-08-06T10:47:56;100151.22;;;30.96;64.77
55932;BME280;41837;55.700;37.984;2023-08-06T10:50:23;100155.13;;;30.94;63.87
55932;BME280;41837;55.700;37.984;2023-08-06T10:52:50;100145.72;;;30.75;65.68
55932;BME280;41837;55.700;37.984;2023-08-06T10:55:27;100150.38;;;30.81;66.43
55932;BME280;41837;55.700;37.984;2023-08-06T10:57:56;100148.50;;;30.81;65.92
55932;BME280;41837;55.700;37.984;2023-08-06T11:00:23;100151.75;;;30.92;62.98
55932;BME280;41837;55.700;37.984;2023-08-06T11:02:51;100143.06;;;30.45;65.28
55932;BME280;41837;55.700;37.984;2023-08-06T11:05:19;100150.53;;;30.20;65.21
55932;BME280;41837;55.700;37.984;2023-08-06T11:07:45;100145.72;;;30.75;63.12
55932;BME280;41837;55.700;37.984;2023-08-06T11:10:12;100140.56;;;31.10;62.05
55932;BME280;41837;55.700;37.984;2023-08-06T11:12:39;100139.22;;;31.85;61.33
55932;BME280;41837;55.700;37.984;2023-08-06T11:15:07;100141.34;;;31.47;61.41
55932;BME280;41837;55.700;37.984;2023-08-06T11:17:34;100128.00;;;31.02;64.89
55932;BME280;41837;55.700;37.984;2023-08-06T11:20:03;100134.81;;;30.83;65.89
55932;BME280;41837;55.700;37.984;2023-08-06T11:22:33;100135.50;;;31.21;65.04
55932;BME280;41837;55.700;37.984;2023-08-06T11:24:59;100135.56;;;31.50;63.93
55932;BME280;41837;55.700;37.984;2023-08-06T11:27:31;100130.44;;;31.33;61.91
55932;BME280;41837;55.700;37.984;2023-08-06T11:29:57;100134.41;;;31.37;62.20
55932;BME280;41837;55.700;37.984;2023-08-06T11:32:24;100132.91;;;31.13;64.58
55932;BME280;41837;55.700;37.984;2023-08-06T11:34:52;100124.06;;;31.63;62.09
55932;BME280;41837;55.700;37.984;2023-08-06T11:37:21;100127.38;;;31.86;61.40
55932;BME280;41837;55.700;37.984;2023-08-06T11:39:49;100123.13;;;30.76;62.67
55932;BME280;41837;55.700;37.984;2023-08-06T11:42:16;100118.97;;;30.43;65.25
55932;BME280;41837;55.700;37.984;2023-08-06T11:44:42;100122.22;;;30.39;66.61
55932;BME280;41837;55.700;37.984;2023-08-06T11:47:16;100118.94;;;30.58;66.61
55932;BME280;41837;55.700;37.984;2023-08-06T11:49:48;100120.72;;;30.51;62.53
55932;BME280;41837;55.700;37.984;2023-08-06T11:52:18;100111.16;;;30.85;61.20
55932;BME280;41837;55.700;37.984;2023-08-06T11:55:08;100111.72;;;31.32;62.21
55932;BME280;41837;55.700;37.984;2023-08-06T11:57:37;100106.09;;;31.76;62.06
55932;BME280;41837;55.700;37.984;2023-08-06T12:00:14;100107.38;;;31.37;61.74
55932;BME280;41837;55.700;37.984;2023-08-06T12:02:44;100111.25;;;30.55;65.32
55932;BME280;41837;55.700;37.984;2023-08-06T12:05:15;100107.50;;;30.56;65.76
55932;BME280;41837;55.700;37.984;2023-08-06T12:07:44;100110.28;;;30.18;68.54
55932;BME280;41837;55.700;37.984;2023-08-06T12:10:12;100102.75;;;30.28;68.79
55932;BME280;41837;55.700;37.984;2023-08-06T12:12:38;100098.94;;;30.53;64.46
55932;BME280;41837;55.700;37.984;2023-08-06T12:15:06;100102.47;;;30.53;62.89
55932;BME280;41837;55.700;37.984;2023-08-06T12:17:33;100088.16;;;30.53;62.15
55932;BME280;41837;55.700;37.984;2023-08-06T12:20:00;100090.47;;;30.71;61.72
55932;BME280;41837;55.700;37.984;2023-08-06T12:22:27;100092.28;;;30.85;60.16
55932;BME280;41837;55.700;37.984;2023-08-06T12:24:54;100100.81;;;30.52;62.35
55932;BME280;41837;55.700;37.984;2023-08-06T12:27:21;100095.78;;;30.49;64.26
55932;BME280;41837;55.700;37.984;2023-08-06T12:29:48;100093.75;;;30.36;65.63
55932;BME280;41837;55.700;37.984;2023-08-06T12:32:15;100087.06;;;30.47;66.09
55932;BME280;41837;55.700;37.984;2023-08-06T12:34:42;100081.06;;;30.52;65.01
55932;BME280;41837;55.700;37.984;2023-08-06T12:37:09;100088.63;;;30.26;68.22
55932;BME280;41837;55.700;37.984;2023-08-06T12:39:36;100094.09;;;30.33;68.74
55932;BME280;41837;55.700;37.984;2023-08-06T12:42:04;100085.41;;;29.78;68.79
55932;BME280;41837;55.700;37.984;2023-08-06T12:44:31;100092.13;;;29.59;68.77
55932;BME280;41837;55.700;37.984;2023-08-06T12:46:57;100089.53;;;30.04;68.93
55932;BME280;41837;55.700;37.984;2023-08-06T12:49:27;100080.16;;;30.15;66.43
55932;BME280;41837;55.700;37.984;2023-08-06T12:51:55;100080.84;;;30.83;65.71
55932;BME280;41837;55.700;37.984;2023-08-06T12:54:23;100078.03;;;30.91;65.27
55932;BME280;41837;55.700;37.984;2023-08-06T12:56:49;100079.94;;;30.76;65.66